sensor_id;sensor_type;location;lat;lon;timestamp;pressure;altitude;pressure_sealevel;temperature;humidity
59272;BME280;45043;51.068;7.026;2023-08-20T00:02:39;100865.13;;;20.55;59.49
59272;BME280;45043;51.068;7.026;2023-08-20T00:05:42;100859.72;;;20.55;59.44
59272;BME280;45043;51.068;7.026;2023-08-20T00:08:43;100864.28;;;20.54;59.17
59272;BME280;45043;51.068;7.026;2023-08-20T00:11:44;100873.13;;;20.50;59.54
59272;BME280;45043;51.068;7.026;2023-08-20T00:17:59;100872.97;;;20.34;59.74
59272;BME280;45043;51.068;7.026;2023-08-20T00:21:00;100873.97;;;20.28;60.27
59272;BME280;45043;51.068;7.026;2023-08-20T00:24:01;100876.13;;;20.26;60.28
59272;BME280;45043;51.068;7.026;2023-08-20T00:27:02;100875.81;;;20.23;60.39
59272;BME280;45043;51.068;7.026;2023-08-20T00:30:03;100880.13;;;20.24;60.74
59272;BME280;45043;51.068;7.026;2023-08-20T00:33:04;100879.63;;;20.27;60.61
59272;BME280;45043;51.068;7.026;2023-08-20T00:36:05;100880.19;;;20.29;60.25
59272;BME280;45043;51.068;7.026;2023-08-20T00:39:06;100886.63;;;20.28;60.30
59272;BME280;45043;51.068;7.026;2023-08-20T00:42:07;100884.75;;;20.28;60.34
59272;BME280;45043;51.068;7.026;2023-08-20T00:45:08;100885.03;;;20.27;60.15
59272;BME280;45043;51.068;7.026;2023-08-20T00:48:10;100889.78;;;20.20;60.57
59272;BME280;45043;51.068;7.026;2023-08-20T00:51:32;100890.22;;;20.12;60.99
59272;BME280;45043;51.068;7.026;2023-08-20T00:54:34;100882.88;;;20.07;60.66
59272;BME280;45043;51.068;7.026;2023-08-20T00:57:36;100870.63;;;19.99;60.77
59272;BME280;45043;51.068;7.026;2023-08-20T01:00:38;100871.78;;;19.86;61.06
59272;BME280;45043;51.068;7.026;2023-08-20T01:03:39;100873.03;;;19.79;61.47
59272;BME280;45043;51.068;7.026;2023-08-20T01:07:06;100875.91;;;19.72;61.99
59272;BME280;45043;51.068;7.026;2023-08-20T01:13:18;100865.28;;;19.66;61.97
59272;BME280;45043;51.068;7.026;2023-08-20T01:16:19;100855.03;;;19.62;61.99
59272;BME280;45043;51.068;7.026;2023-08-20T01:19:22;100836.81;;;19.53;62.62
59272;BME280;45043;51.068;7.026;2023-08-20T01:25:58;100836.34;;;19.39;62.80
59272;BME280;45043;51.068;7.026;2023-08-20T01:29:04;100850.03;;;19.37;63.11
59272;BME280;45043;51.068;7.026;2023-08-20T01:32:07;100854.97;;;19.41;62.93
59272;BME280;45043;51.068;7.026;2023-08-20T01:35:12;100852.81;;;19.43;63.48
59272;BME280;45043;51.068;7.026;2023-08-20T01:38:16;100855.63;;;19.48;62.88
59272;BME280;45043;51.068;7.026;2023-08-20T01:41:16;100848.66;;;19.52;62.95
59272;BME280;45043;51.068;7.026;2023-08-20T01:44:17;100852.22;;;19.57;62.52
59272;BME280;45043;51.068;7.026;2023-08-20T01:47:18;100855.25;;;19.61;62.78
59272;BME280;45043;51.068;7.026;2023-08-20T01:50:20;100870.94;;;19.64;62.38
59272;BME280;45043;51.068;7.026;2023-08-20T01:53:21;100870.94;;;19.64;62.62
59272;BME280;45043;51.068;7.026;2023-08-20T01:56:22;100868.81;;;19.66;62.46
59272;BME280;45043;51.068;7.026;2023-08-20T01:59:23;100875.56;;;19.69;62.01
59272;BME280;45043;51.068;7.026;2023-08-20T02:02:24;100878.28;;;19.69;62.08
59272;BME280;45043;51.068;7.026;2023-08-20T02:05:25;100878.44;;;19.62;62.61
59272;BME280;45043;51.068;7.026;2023-08-20T02:08:26;100879.28;;;19.62;62.73
59272;BME280;45043;51.068;7.026;2023-08-20T02:11:27;100880.59;;;19.60;62.48
59272;BME280;45043;51.068;7.026;2023-08-20T02:14:28;100885.31;;;19.53;63.02
59272;BME280;45043;51.068;7.026;2023-08-20T02:17:29;100879.59;;;19.49;62.64
59272;BME280;45043;51.068;7.026;2023-08-20T02:20:31;100884.19;;;19.49;62.92
59272;BME280;45043;51.068;7.026;2023-08-20T02:23:32;100883.38;;;19.48;62.92
59272;BME280;45043;51.068;7.026;2023-08-20T02:26:32;100894.63;;;19.45;62.83
59272;BME280;45043;51.068;7.026;2023-08-20T02:29:33;100887.63;;;19.44;63.06
59272;BME280;45043;51.068;7.026;2023-08-20T02:32:34;100894.38;;;19.47;63.24
59272;BME280;45043;51.068;7.026;2023-08-20T02:35:36;100889.56;;;19.49;62.95
59272;BME280;45043;51.068;7.026;2023-08-20T02:38:37;100900.69;;;19.52;62.85
59272;BME280;45043;51.068;7.026;2023-08-20T02:41:37;100904.78;;;19.55;62.87
59272;BME280;45043;51.068;7.026;2023-08-20T02:44:38;100903.28;;;19.47;62.96
59272;BME280;45043;51.068;7.026;2023-08-20T02:47:40;100911.75;;;19.22;63.47
59272;BME280;45043;51.068;7.026;2023-08-20T02:50:40;100917.22;;;18.82;64.74
59272;BME280;45043;51.068;7.026;2023-08-20T02:53:41;100922.59;;;18.41;66.66
59272;BME280;45043;51.068;7.026;2023-08-20T02:56:42;100929.31;;;18.15;67.39
59272;BME280;45043;51.068;7.026;2023-08-20T02:59:43;100924.31;;;17.96;68.63
59272;BME280;45043;51.068;7.026;2023-08-20T03:02:44;100924.38;;;17.89;69.20
59272;BME280;45043;51.068;7.026;2023-08-20T03:05:45;100922.88;;;17.81;69.93
59272;BME280;45043;51.068;7.026;2023-08-20T03:08:46;100916.06;;;17.90;70.36
59272;BME280;45043;51.068;7.026;2023-08-20T03:11:47;100916.81;;;17.98;70.32
59272;BME280;45043;51.068;7.026;2023-08-20T03:14:48;100925.78;;;17.91;70.38
59272;BME280;45043;51.068;7.026;2023-08-20T03:17:48;100918.94;;;17.96;69.92
59272;BME280;45043;51.068;7.026;2023-08-20T03:20:49;100915.41;;;18.07;70.16
59272;BME280;45043;51.068;7.026;2023-08-20T03:23:50;100923.22;;;18.20;69.42
59272;BME280;45043;51.068;7.026;2023-08-20T03:26:50;100929.38;;;18.32;69.30
59272;BME280;45043;51.068;7.026;2023-08-20T03:29:52;100932.19;;;18.37;68.68
59272;BME280;45043;51.068;7.026;2023-08-20T03:32:54;100928.66;;;18.49;69.17
59272;BME280;45043;51.068;7.026;2023-08-20T03:35:55;100921.94;;;18.63;67.87
59272;BME280;45043;51.068;7.026;2023-08-20T03:38:57;100919.78;;;18.77;67.83
59272;BME280;45043;51.068;7.026;2023-08-20T03:41:58;100926.19;;;18.87;67.06
59272;BME280;45043;51.068;7.026;2023-08-20T03:45:03;100923.69;;;18.98;66.53
59272;BME280;45043;51.068;7.026;2023-08-20T03:48:04;100923.78;;;19.03;66.24
59272;BME280;45043;51.068;7.026;2023-08-20T03:51:04;100925.50;;;19.09;65.77
59272;BME280;45043;51.068;7.026;2023-08-20T03:54:06;100933.69;;;19.14;65.52
59272;BME280;45043;51.068;7.026;2023-08-20T03:57:07;100941.84;;;19.19;65.61
59272;BME280;45043;51.068;7.026;2023-08-20T04:00:09;100948.34;;;19.06;65.66
59272;BME280;45043;51.068;7.026;2023-08-20T04:03:15;100951.41;;;18.81;65.97
59272;BME280;45043;51.068;7.026;2023-08-20T04:06:20;100948.53;;;18.36;67.65
59272;BME280;45043;51.068;7.026;2023-08-20T04:09:21;100957.25;;;18.03;68.62
59272;BME280;45043;51.068;7.026;2023-08-20T04:12:22;100963.53;;;17.73;70.73
59272;BME280;45043;51.068;7.026;2023-08-20T04:15:23;100958.81;;;17.57;71.16
59272;BME280;45043;51.068;7.026;2023-08-20T04:18:23;100959.53;;;17.64;71.94
59272;BME280;45043;51.068;7.026;2023-08-20T04:21:26;100968.19;;;17.66;71.79
59272;BME280;45043;51.068;7.026;2023-08-20T04:24:27;100963.72;;;17.60;72.55
59272;BME280;45043;51.068;7.026;2023-08-20T04:27:28;100977.41;;;17.58;72.55
59272;BME280;45043;51.068;7.026;2023-08-20T04:30:28;100967.78;;;17.51;72.96
59272;BME280;45043;51.068;7.026;2023-08-20T04:33:29;100961.50;;;17.57;73.64
59272;BME280;45043;51.068;7.026;2023-08-20T04:36:30;100965.50;;;17.78;73.04
59272;BME280;45043;51.068;7.026;2023-08-20T04:39:31;100963.81;;;18.07;72.23
59272;BME280;45043;51.068;7.026;2023-08-20T04:42:31;100967.53;;;18.29;71.62
59272;BME280;45043;51.068;7.026;2023-08-20T04:45:32;100961.41;;;18.46;70.93
59272;BME280;45043;51.068;7.026;2023-08-20T04:48:33;100974.59;;;18.71;70.05
59272;BME280;45043;51.068;7.026;2023-08-20T04:51:34;100984.09;;;18.73;68.88
59272;BME280;45043;51.068;7.026;2023-08-20T04:54:36;100985.84;;;18.67;68.84
59272;BME280;45043;51.068;7.026;2023-08-20T04:57:37;100983.84;;;18.63;68.62
59272;BME280;45043;51.068;7.026;2023-08-20T05:00:38;100976.31;;;18.65;69.03
59272;BME280;45043;51.068;7.026;2023-08-20T05:03:46;100976.53;;;18.87;68.50
59272;BME280;45043;51.068;7.026;2023-08-20T05:06:47;100984.19;;;19.07;67.42
59272;BME280;45043;51.068;7.026;2023-08-20T05:09:49;100981.31;;;19.25;67.14
59272;BME280;45043;51.068;7.026;2023-08-20T05:12:50;100991.75;;;19.38;66.74
59272;BME280;45043;51.068;7.026;2023-08-20T05:15:52;100985.50;;;19.50;65.85
59272;BME280;45043;51.068;7.026;2023-08-20T05:18:53;100984.28;;;19.57;65.17
59272;BME280;45043;51.068;7.026;2023-08-20T05:21:54;100984.47;;;19.68;65.01
59272;BME280;45043;51.068;7.026;2023-08-20T05:24:59;100992.47;;;19.79;64.17
59272;BME280;45043;51.068;7.026;2023-08-20T05:28:01;100998.50;;;19.86;64.01
59272;BME280;45043;51.068;7.026;2023-08-20T05:31:03;100995.56;;;19.88;63.33
59272;BME280;45043;51.068;7.026;2023-08-20T05:34:05;100987.88;;;19.97;63.07
59272;BME280;45043;51.068;7.026;2023-08-20T05:37:06;100983.03;;;19.99;62.89
59272;BME280;45043;51.068;7.026;2023-08-20T05:40:08;100992.47;;;20.13;62.96
59272;BME280;45043;51.068;7.026;2023-08-20T05:43:09;100994.72;;;20.21;62.29
59272;BME280;45043;51.068;7.026;2023-08-20T05:46:11;100993.25;;;20.30;61.99
59272;BME280;45043;51.068;7.026;2023-08-20T05:49:14;100996.00;;;20.35;61.65
59272;BME280;45043;51.068;7.026;2023-08-20T05:52:17;101003.88;;;20.37;61.62
59272;BME280;45043;51.068;7.026;2023-08-20T05:55:18;101001.22;;;20.42;61.51
59272;BME280;45043;51.068;7.026;2023-08-20T05:58:19;101003.75;;;20.49;61.18
59272;BME280;45043;51.068;7.026;2023-08-20T06:01:20;100999.50;;;20.53;60.81
59272;BME280;45043;51.068;7.026;2023-08-20T06:04:21;100991.38;;;20.53;60.77
59272;BME280;45043;51.068;7.026;2023-08-20T06:07:22;101002.81;;;20.60;60.50
59272;BME280;45043;51.068;7.026;2023-08-20T06:10:23;101008.03;;;20.67;60.20
59272;BME280;45043;51.068;7.026;2023-08-20T06:13:24;100994.59;;;20.72;60.48
59272;BME280;45043;51.068;7.026;2023-08-20T06:16:25;100994.44;;;20.78;60.21
59272;BME280;45043;51.068;7.026;2023-08-20T06:19:26;100997.94;;;20.79;60.19
59272;BME280;45043;51.068;7.026;2023-08-20T06:22:27;101003.72;;;20.88;60.12
59272;BME280;45043;51.068;7.026;2023-08-20T06:25:29;101007.63;;;20.97;59.75
59272;BME280;45043;51.068;7.026;2023-08-20T06:28:30;101009.66;;;21.12;59.55
59272;BME280;45043;51.068;7.026;2023-08-20T06:31:31;101013.03;;;21.24;59.33
59272;BME280;45043;51.068;7.026;2023-08-20T06:34:46;101008.53;;;21.35;58.72
59272;BME280;45043;51.068;7.026;2023-08-20T06:37:47;101005.47;;;21.48;58.32
59272;BME280;45043;51.068;7.026;2023-08-20T06:40:48;101008.22;;;21.58;58.18
59272;BME280;45043;51.068;7.026;2023-08-20T06:43:54;101003.44;;;21.65;57.46
59272;BME280;45043;51.068;7.026;2023-08-20T06:46:54;101001.91;;;21.74;57.36
59272;BME280;45043;51.068;7.026;2023-08-20T06:49:55;101006.00;;;21.82;57.41
59272;BME280;45043;51.068;7.026;2023-08-20T06:52:55;101005.00;;;21.93;57.31
59272;BME280;45043;51.068;7.026;2023-08-20T06:55:56;101002.59;;;21.97;56.56
59272;BME280;45043;51.068;7.026;2023-08-20T06:58:56;101012.91;;;22.00;56.67
59272;BME280;45043;51.068;7.026;2023-08-20T07:01:57;101001.00;;;22.01;56.54
59272;BME280;45043;51.068;7.026;2023-08-20T07:04:58;101008.34;;;22.06;56.25
59272;BME280;45043;51.068;7.026;2023-08-20T07:07:59;101007.81;;;22.09;56.30
59272;BME280;45043;51.068;7.026;2023-08-20T07:11:00;101001.41;;;22.15;56.24
59272;BME280;45043;51.068;7.026;2023-08-20T07:14:01;101010.09;;;22.22;56.08
59272;BME280;45043;51.068;7.026;2023-08-20T07:17:04;101009.84;;;22.29;56.06
59272;BME280;45043;51.068;7.026;2023-08-20T07:20:06;101012.34;;;22.35;55.47
59272;BME280;45043;51.068;7.026;2023-08-20T07:23:07;101015.53;;;22.27;55.65
59272;BME280;45043;51.068;7.026;2023-08-20T07:26:11;101012.53;;;22.18;56.19
59272;BME280;45043;51.068;7.026;2023-08-20T07:29:16;101017.38;;;22.21;55.98
59272;BME280;45043;51.068;7.026;2023-08-20T07:32:17;101014.94;;;22.20;55.63
59272;BME280;45043;51.068;7.026;2023-08-20T07:35:18;101010.63;;;22.24;56.02
59272;BME280;45043;51.068;7.026;2023-08-20T07:38:19;101023.63;;;22.22;55.45
59272;BME280;45043;51.068;7.026;2023-08-20T07:41:21;101016.25;;;22.12;55.68
59272;BME280;45043;51.068;7.026;2023-08-20T07:44:21;101015.38;;;22.07;55.44
59272;BME280;45043;51.068;7.026;2023-08-20T07:47:22;101014.03;;;22.09;55.31
59272;BME280;45043;51.068;7.026;2023-08-20T07:50:23;101022.66;;;22.01;55.98
59272;BME280;45043;51.068;7.026;2023-08-20T07:53:24;101013.66;;;21.95;56.55
59272;BME280;45043;51.068;7.026;2023-08-20T07:56:26;101025.75;;;21.83;57.55
59272;BME280;45043;51.068;7.026;2023-08-20T07:59:28;101028.38;;;21.72;57.65
59272;BME280;45043;51.068;7.026;2023-08-20T08:02:29;101023.75;;;21.68;58.05
59272;BME280;45043;51.068;7.026;2023-08-20T08:05:30;101016.41;;;21.63;57.54
59272;BME280;45043;51.068;7.026;2023-08-20T08:08:30;101028.84;;;21.64;58.13
59272;BME280;45043;51.068;7.026;2023-08-20T08:11:31;101033.25;;;21.75;57.82
59272;BME280;45043;51.068;7.026;2023-08-20T08:14:32;101040.34;;;21.82;57.87
59272;BME280;45043;51.068;7.026;2023-08-20T08:17:33;101037.28;;;21.73;58.11
59272;BME280;45043;51.068;7.026;2023-08-20T08:20:34;101049.22;;;21.77;58.40
59272;BME280;45043;51.068;7.026;2023-08-20T08:23:36;101044.72;;;21.88;57.91
59272;BME280;45043;51.068;7.026;2023-08-20T08:26:36;101043.97;;;21.92;57.74
59272;BME280;45043;51.068;7.026;2023-08-20T08:29:37;101036.16;;;21.96;57.87
59272;BME280;45043;51.068;7.026;2023-08-20T08:32:38;101040.41;;;21.92;57.72
59272;BME280;45043;51.068;7.026;2023-08-20T08:35:39;101037.25;;;22.00;57.56
59272;BME280;45043;51.068;7.026;2023-08-20T08:38:40;101039.00;;;22.11;57.45
59272;BME280;45043;51.068;7.026;2023-08-20T08:41:41;101031.84;;;22.00;57.45
59272;BME280;45043;51.068;7.026;2023-08-20T08:44:43;101033.56;;;22.11;57.00
59272;BME280;45043;51.068;7.026;2023-08-20T08:47:44;101030.97;;;22.32;56.87
59272;BME280;45043;51.068;7.026;2023-08-20T08:50:46;101042.75;;;22.53;55.93
59272;BME280;45043;51.068;7.026;2023-08-20T08:53:49;101025.75;;;22.67;55.37
59272;BME280;45043;51.068;7.026;2023-08-20T08:56:50;101025.28;;;22.81;54.88
59272;BME280;45043;51.068;7.026;2023-08-20T08:59:51;101026.94;;;22.92;54.89
59272;BME280;45043;51.068;7.026;2023-08-20T09:02:51;101030.25;;;23.04;53.83
59272;BME280;45043;51.068;7.026;2023-08-20T09:06:01;101019.97;;;23.11;53.96
59272;BME280;45043;51.068;7.026;2023-08-20T09:09:04;101022.66;;;23.01;53.50
59272;BME280;45043;51.068;7.026;2023-08-20T09:12:17;101016.19;;;23.07;53.26
59272;BME280;45043;51.068;7.026;2023-08-20T09:15:18;101019.16;;;23.21;53.07
59272;BME280;45043;51.068;7.026;2023-08-20T09:18:20;101025.44;;;23.27;53.32
59272;BME280;45043;51.068;7.026;2023-08-20T09:21:26;101027.84;;;23.13;52.89
59272;BME280;45043;51.068;7.026;2023-08-20T09:24:34;101031.91;;;23.15;53.15
59272;BME280;45043;51.068;7.026;2023-08-20T09:27:39;101036.28;;;23.27;52.54
59272;BME280;45043;51.068;7.026;2023-08-20T09:30:58;101034.06;;;23.13;52.84
59272;BME280;45043;51.068;7.026;2023-08-20T09:33:59;101042.47;;;23.12;52.59
59272;BME280;45043;51.068;7.026;2023-08-20T09:37:00;101043.28;;;23.07;52.32
59272;BME280;45043;51.068;7.026;2023-08-20T09:40:01;101042.97;;;22.93;52.58
59272;BME280;45043;51.068;7.026;2023-08-20T09:43:03;101043.75;;;22.89;52.88
59272;BME280;45043;51.068;7.026;2023-08-20T09:46:10;101038.88;;;22.86;53.05
59272;BME280;45043;51.068;7.026;2023-08-20T09:49:13;101049.72;;;22.86;52.85
59272;BME280;45043;51.068;7.026;2023-08-20T09:52:22;101044.28;;;22.86;51.58
59272;BME280;45043;51.068;7.026;2023-08-20T09:55:30;101047.03;;;22.96;50.31
59272;BME280;45043;51.068;7.026;2023-08-20T09:58:35;101043.31;;;23.22;49.71
59272;BME280;45043;51.068;7.026;2023-08-20T10:01:36;101041.75;;;23.42;49.03
59272;BME280;45043;51.068;7.026;2023-08-20T10:04:38;101045.56;;;23.56;48.50
59272;BME280;45043;51.068;7.026;2023-08-20T10:07:39;101051.53;;;23.63;49.16
59272;BME280;45043;51.068;7.026;2023-08-20T10:10:40;101047.72;;;23.39;49.04
59272;BME280;45043;51.068;7.026;2023-08-20T10:13:41;101060.91;;;23.20;49.83
59272;BME280;45043;51.068;7.026;2023-08-20T10:16:42;101061.19;;;23.23;49.58
59272;BME280;45043;51.068;7.026;2023-08-20T10:19:44;101066.09;;;23.27;49.37
59272;BME280;45043;51.068;7.026;2023-08-20T10:22:45;101061.72;;;23.20;49.04
59272;BME280;45043;51.068;7.026;2023-08-20T10:25:46;101049.56;;;23.23;48.94
59272;BME280;45043;51.068;7.026;2023-08-20T10:28:47;101053.13;;;23.39;48.85
59272;BME280;45043;51.068;7.026;2023-08-20T10:31:48;101046.91;;;23.59;47.96
59272;BME280;45043;51.068;7.026;2023-08-20T10:34:51;101042.84;;;23.77;48.50
59272;BME280;45043;51.068;7.026;2023-08-20T10:38:05;101041.78;;;23.93;48.67
59272;BME280;45043;51.068;7.026;2023-08-20T10:41:07;101052.63;;;23.93;48.00
59272;BME280;45043;51.068;7.026;2023-08-20T10:44:11;101045.28;;;23.83;48.07
59272;BME280;45043;51.068;7.026;2023-08-20T10:47:16;101043.66;;;23.72;47.91
59272;BME280;45043;51.068;7.026;2023-08-20T10:50:18;101051.25;;;23.44;48.25
59272;BME280;45043;51.068;7.026;2023-08-20T10:53:22;101043.31;;;23.33;48.46
59272;BME280;45043;51.068;7.026;2023-08-20T10:56:22;101058.03;;;23.57;48.04
59272;BME280;45043;51.068;7.026;2023-08-20T10:59:26;101050.72;;;23.68;47.66
59272;BME280;45043;51.068;7.026;2023-08-20T11:02:28;101054.81;;;23.70;47.14
59272;BME280;45043;51.068;7.026;2023-08-20T11:05:29;101054.81;;;23.70;46.86
59272;BME280;45043;51.068;7.026;2023-08-20T11:08:30;101048.81;;;23.84;46.53
59272;BME280;45043;51.068;7.026;2023-08-20T11:11:30;101044.50;;;23.93;46.01
59272;BME280;45043;51.068;7.026;2023-08-20T11:14:32;101043.38;;;23.74;46.17
59272;BME280;45043;51.068;7.026;2023-08-20T11:17:32;101050.72;;;23.68;46.27
59272;BME280;45043;51.068;7.026;2023-08-20T11:20:33;101039.63;;;23.75;45.69
59272;BME280;45043;51.068;7.026;2023-08-20T11:23:36;101050.44;;;23.85;45.67
59272;BME280;45043;51.068;7.026;2023-08-20T11:26:41;101040.69;;;23.94;45.02
59272;BME280;45043;51.068;7.026;2023-08-20T11:29:42;101041.78;;;24.13;45.18
59272;BME280;45043;51.068;7.026;2023-08-20T11:32:44;101042.84;;;24.23;44.36
59272;BME280;45043;51.068;7.026;2023-08-20T11:35:46;101036.88;;;24.21;44.74
59272;BME280;45043;51.068;7.026;2023-08-20T11:38:51;101036.34;;;24.18;45.22
59272;BME280;45043;51.068;7.026;2023-08-20T11:41:55;101046.66;;;24.27;44.46
59272;BME280;45043;51.068;7.026;2023-08-20T11:44:56;101029.75;;;24.40;43.48
59272;BME280;45043;51.068;7.026;2023-08-20T11:47:58;101043.34;;;24.45;43.51
59272;BME280;45043;51.068;7.026;2023-08-20T11:50:59;101030.25;;;24.62;42.81
59272;BME280;45043;51.068;7.026;2023-08-20T11:54:01;101034.28;;;24.70;43.64
59272;BME280;45043;51.068;7.026;2023-08-20T11:57:05;101033.72;;;24.83;42.94
59272;BME280;45043;51.068;7.026;2023-08-20T12:00:07;101036.38;;;24.88;41.88
59272;BME280;45043;51.068;7.026;2023-08-20T12:03:20;101026.28;;;25.04;40.94
59272;BME280;45043;51.068;7.026;2023-08-20T12:06:21;101021.81;;;25.24;40.20
59272;BME280;45043;51.068;7.026;2023-08-20T12:09:25;101020.41;;;25.31;40.04
59272;BME280;45043;51.068;7.026;2023-08-20T12:12:26;101019.19;;;25.48;39.60
59272;BME280;45043;51.068;7.026;2023-08-20T12:15:28;101021.59;;;25.54;39.64
59272;BME280;45043;51.068;7.026;2023-08-20T12:18:29;101022.16;;;25.51;40.29
59272;BME280;45043;51.068;7.026;2023-08-20T12:21:30;101022.69;;;25.53;40.60
59272;BME280;45043;51.068;7.026;2023-08-20T12:24:32;101018.75;;;25.70;40.94
59272;BME280;45043;51.068;7.026;2023-08-20T12:27:33;101021.84;;;25.92;40.00
59272;BME280;45043;51.068;7.026;2023-08-20T12:30:35;101013.06;;;26.00;40.40
59272;BME280;45043;51.068;7.026;2023-08-20T12:33:36;101001.47;;;26.14;39.90
59272;BME280;45043;51.068;7.026;2023-08-20T12:36:37;101010.56;;;26.33;39.24
59272;BME280;45043;51.068;7.026;2023-08-20T12:39:38;101010.69;;;26.47;39.53
59272;BME280;45043;51.068;7.026;2023-08-20T12:42:39;101006.50;;;26.54;39.17
59272;BME280;45043;51.068;7.026;2023-08-20T12:45:40;101006.47;;;26.78;38.33
59272;BME280;45043;51.068;7.026;2023-08-20T12:48:41;100994.22;;;26.76;38.12
59272;BME280;45043;51.068;7.026;2023-08-20T12:51:42;100995.78;;;26.82;37.95
59272;BME280;45043;51.068;7.026;2023-08-20T12:54:43;100998.25;;;27.02;36.73
59272;BME280;45043;51.068;7.026;2023-08-20T12:57:54;100993.78;;;27.12;37.25
59272;BME280;45043;51.068;7.026;2023-08-20T13:00:55;100984.75;;;27.30;36.47
59272;BME280;45043;51.068;7.026;2023-08-20T13:03:56;100989.38;;;27.29;36.63
59272;BME280;45043;51.068;7.026;2023-08-20T13:06:57;100980.16;;;27.44;35.78
59272;BME280;45043;51.068;7.026;2023-08-20T13:09:58;100979.28;;;27.49;35.83
59272;BME280;45043;51.068;7.026;2023-08-20T13:13:01;100980.75;;;27.60;35.63
59272;BME280;45043;51.068;7.026;2023-08-20T13:16:03;100979.66;;;27.89;35.51
59272;BME280;45043;51.068;7.026;2023-08-20T13:19:04;100979.00;;;28.11;34.30
59272;BME280;45043;51.068;7.026;2023-08-20T13:22:05;100980.13;;;28.10;33.29
59272;BME280;45043;51.068;7.026;2023-08-20T13:25:07;100982.97;;;28.05;33.66
59272;BME280;45043;51.068;7.026;2023-08-20T13:28:08;100979.72;;;28.03;33.93
59272;BME280;45043;51.068;7.026;2023-08-20T13:31:09;100976.28;;;28.24;33.69
59272;BME280;45043;51.068;7.026;2023-08-20T13:34:11;100977.31;;;28.56;33.19
59272;BME280;45043;51.068;7.026;2023-08-20T13:37:12;100987.97;;;28.80;32.51
59272;BME280;45043;51.068;7.026;2023-08-20T13:40:13;100980.28;;;28.82;32.15
59272;BME280;45043;51.068;7.026;2023-08-20T13:43:14;100986.91;;;29.04;32.06
59272;BME280;45043;51.068;7.026;2023-08-20T13:46:14;100989.56;;;29.09;32.17
59272;BME280;45043;51.068;7.026;2023-08-20T13:49:15;100993.34;;;29.22;31.98
59272;BME280;45043;51.068;7.026;2023-08-20T13:52:16;100971.41;;;29.35;32.68
59272;BME280;45043;51.068;7.026;2023-08-20T13:55:16;100978.44;;;28.91;33.24
59272;BME280;45043;51.068;7.026;2023-08-20T13:58:18;100980.97;;;28.88;33.99
59272;BME280;45043;51.068;7.026;2023-08-20T14:01:19;100977.69;;;29.36;33.24
59272;BME280;45043;51.068;7.026;2023-08-20T14:04:19;100975.22;;;29.79;32.78
59272;BME280;45043;51.068;7.026;2023-08-20T14:07:21;100974.25;;;29.75;31.98
59272;BME280;45043;51.068;7.026;2023-08-20T14:10:22;100985.19;;;29.75;32.47
59272;BME280;45043;51.068;7.026;2023-08-20T14:13:22;100972.63;;;30.05;31.31
59272;BME280;45043;51.068;7.026;2023-08-20T14:16:23;100975.53;;;30.09;31.68
59272;BME280;45043;51.068;7.026;2023-08-20T14:19:24;100978.22;;;30.40;31.80
59272;BME280;45043;51.068;7.026;2023-08-20T14:22:25;100971.53;;;30.81;30.48
59272;BME280;45043;51.068;7.026;2023-08-20T14:25:26;100973.47;;;31.15;30.84
59272;BME280;45043;51.068;7.026;2023-08-20T14:28:27;100959.50;;;31.64;30.17
59272;BME280;45043;51.068;7.026;2023-08-20T14:31:31;100957.19;;;32.21;29.39
59272;BME280;45043;51.068;7.026;2023-08-20T14:34:32;100963.84;;;32.50;28.33
59272;BME280;45043;51.068;7.026;2023-08-20T14:37:33;100963.25;;;31.68;29.33
59272;BME280;45043;51.068;7.026;2023-08-20T14:40:38;100960.72;;;30.84;30.20
59272;BME280;45043;51.068;7.026;2023-08-20T14:43:40;100947.50;;;31.04;30.26
59272;BME280;45043;51.068;7.026;2023-08-20T14:46:42;100954.56;;;31.40;29.80
59272;BME280;45043;51.068;7.026;2023-08-20T14:49:43;100947.13;;;31.40;30.24
59272;BME280;45043;51.068;7.026;2023-08-20T14:52:44;100946.31;;;31.48;29.68
59272;BME280;45043;51.068;7.026;2023-08-20T14:55:48;100951.31;;;31.38;30.00
59272;BME280;45043;51.068;7.026;2023-08-20T14:58:49;100943.28;;;31.15;29.91
59272;BME280;45043;51.068;7.026;2023-08-20T15:01:50;100946.00;;;31.50;29.87
59272;BME280;45043;51.068;7.026;2023-08-20T15:04:51;100945.78;;;32.11;28.88
59272;BME280;45043;51.068;7.026;2023-08-20T15:07:52;100940.34;;;32.73;28.17
59272;BME280;45043;51.068;7.026;2023-08-20T15:10:58;100938.88;;;32.97;27.36
59272;BME280;45043;51.068;7.026;2023-08-20T15:14:03;100942.38;;;32.64;27.54
59272;BME280;45043;51.068;7.026;2023-08-20T15:17:04;100933.78;;;32.66;27.52
59272;BME280;45043;51.068;7.026;2023-08-20T15:20:06;100937.56;;;32.61;28.12
59272;BME280;45043;51.068;7.026;2023-08-20T15:23:11;100932.84;;;33.04;27.34
59272;BME280;45043;51.068;7.026;2023-08-20T15:26:12;100938.03;;;33.38;26.83
59272;BME280;45043;51.068;7.026;2023-08-20T15:29:12;100937.53;;;33.94;26.04
59272;BME280;45043;51.068;7.026;2023-08-20T15:32:13;100934.78;;;33.94;25.74
59272;BME280;45043;51.068;7.026;2023-08-20T15:35:14;100948.69;;;33.40;25.81
59272;BME280;45043;51.068;7.026;2023-08-20T15:38:15;100940.97;;;33.33;25.83
59272;BME280;45043;51.068;7.026;2023-08-20T15:41:17;100947.22;;;33.55;25.40
59272;BME280;45043;51.068;7.026;2023-08-20T15:44:18;100937.66;;;32.86;26.95
59272;BME280;45043;51.068;7.026;2023-08-20T15:47:19;100943.72;;;33.00;26.50
59272;BME280;45043;51.068;7.026;2023-08-20T15:50:19;100938.56;;;32.98;26.23
59272;BME280;45043;51.068;7.026;2023-08-20T15:53:21;100935.69;;;32.53;26.68
59272;BME280;45043;51.068;7.026;2023-08-20T15:56:22;100928.41;;;32.48;26.59
59272;BME280;45043;51.068;7.026;2023-08-20T15:59:24;100929.78;;;33.17;27.04
59272;BME280;45043;51.068;7.026;2023-08-20T16:02:26;100916.25;;;34.84;24.57